sensor_id;sensor_type;location;lat;lon;timestamp;pressure;altitude;pressure_sealevel;temperature;humidity
56737;BME280;42618;51.226;4.910;2022-12-18T00:03:49;49872.53;;;-146.94;100.00
56737;BME280;42618;51.226;4.910;2022-12-18T00:06:17;49892.47;;;-146.94;100.00
56737;BME280;42618;51.226;4.910;2022-12-18T00:08:44;49886.50;;;-146.94;100.00
56737;BME280;42618;51.226;4.910;2022-12-18T00:11:18;49886.50;;;-146.94;100.00
56737;BME280;42618;51.226;4.910;2022-12-18T00:13:45;49862.56;;;-146.94;100.00
56737;BME280;42618;51.226;4.910;2022-12-18T00:16:15;49882.50;;;-146.94;100.00
56737;BME280;42618;51.226;4.910;2022-12-18T00:18:42;49864.56;;;-146.94;100.00
56737;BME280;42618;51.226;4.910;2022-12-18T00:21:11;49858.59;;;-146.94;100.00
56737;BME280;42618;51.226;4.910;2022-12-18T00:23:39;49886.50;;;-146.94;100.00
56737;BME280;42618;51.226;4.910;2022-12-18T00:26:11;49870.53;;;-146.94;100.00
56737;BME280;42618;51.226;4.910;2022-12-18T00:28:38;49878.53;;;-146.94;100.00
56737;BME280;42618;51.226;4.910;2022-12-18T00:31:10;49882.50;;;-146.94;100.00
56737;BME280;42618;51.226;4.910;2022-12-18T00:33:37;49864.56;;;-146.94;100.00
56737;BME280;42618;51.226;4.910;2022-12-18T00:36:14;49870.53;;;-146.94;100.00
56737;BME280;42618;51.226;4.910;2022-12-18T00:38:41;49850.59;;;-146.94;100.00
56737;BME280;42618;51.226;4.910;2022-12-18T00:41:09;49884.50;;;-146.94;100.00
56737;BME280;42618;51.226;4.910;2022-12-18T00:43:37;49872.53;;;-146.94;100.00
56737;BME280;42618;51.226;4.910;2022-12-18T00:46:05;49898.47;;;-146.94;100.00
56737;BME280;42618;51.226;4.910;2022-12-18T00:48:32;49886.50;;;-146.94;100.00
56737;BME280;42618;51.226;4.910;2022-12-18T00:50:59;49876.53;;;-146.94;100.00
56737;BME280;42618;51.226;4.910;2022-12-18T00:53:25;49874.53;;;-146.94;100.00
56737;BME280;42618;51.226;4.910;2022-12-18T00:55:52;49850.59;;;-146.94;100.00
56737;BME280;42618;51.226;4.910;2022-12-18T00:58:19;49864.56;;;-146.94;100.00
56737;BME280;42618;51.226;4.910;2022-12-18T01:00:45;49896.47;;;-146.94;100.00
56737;BME280;42618;51.226;4.910;2022-12-18T01:03:13;49894.47;;;-146.94;100.00
56737;BME280;42618;51.226;4.910;2022-12-18T01:05:42;49882.50;;;-146.94;100.00
56737;BME280;42618;51.226;4.910;2022-12-18T01:08:10;49916.41;;;-146.94;100.00
56737;BME280;42618;51.226;4.910;2022-12-18T01:10:40;49854.59;;;-146.94;100.00
56737;BME280;42618;51.226;4.910;2022-12-18T01:13:06;49908.44;;;-146.94;100.00
56737;BME280;42618;51.226;4.910;2022-12-18T01:15:33;49898.47;;;-146.94;100.00
56737;BME280;42618;51.226;4.910;2022-12-18T01:18:00;49890.47;;;-146.94;100.00
56737;BME280;42618;51.226;4.910;2022-12-18T01:20:27;49902.44;;;-146.94;100.00
56737;BME280;42618;51.226;4.910;2022-12-18T01:22:53;49864.56;;;-146.94;100.00
56737;BME280;42618;51.226;4.910;2022-12-18T01:25:20;49890.47;;;-146.94;100.00
56737;BME280;42618;51.226;4.910;2022-12-18T01:27:49;49900.44;;;-146.94;100.00
56737;BME280;42618;51.226;4.910;2022-12-18T01:30:16;49892.47;;;-146.94;100.00
56737;BME280;42618;51.226;4.910;2022-12-18T01:32:44;49904.44;;;-146.94;100.00
56737;BME280;42618;51.226;4.910;2022-12-18T01:35:10;49884.50;;;-146.94;100.00
56737;BME280;42618;51.226;4.910;2022-12-18T01:37:37;49946.31;;;-146.94;100.00
56737;BME280;42618;51.226;4.910;2022-12-18T01:40:04;49906.44;;;-146.94;100.00
56737;BME280;42618;51.226;4.910;2022-12-18T01:42:31;49866.56;;;-146.94;100.00
56737;BME280;42618;51.226;4.910;2022-12-18T01:47:46;49896.47;;;-146.94;100.00
56737;BME280;42618;51.226;4.910;2022-12-18T01:50:15;49866.56;;;-146.94;100.00
56737;BME280;42618;51.226;4.910;2022-12-18T01:52:43;49874.53;;;-146.94;100.00
56737;BME280;42618;51.226;4.910;2022-12-18T01:55:12;49892.47;;;-146.94;100.00
56737;BME280;42618;51.226;4.910;2022-12-18T01:57:40;49910.41;;;-146.94;100.00
56737;BME280;42618;51.226;4.910;2022-12-18T02:00:14;49922.38;;;-146.94;100.00
56737;BME280;42618;51.226;4.910;2022-12-18T02:02:43;49904.44;;;-146.94;100.00
56737;BME280;42618;51.226;4.910;2022-12-18T02:05:14;49870.53;;;-146.94;100.00
56737;BME280;42618;51.226;4.910;2022-12-18T02:08:10;49862.56;;;-146.94;100.00
56737;BME280;42618;51.226;4.910;2022-12-18T02:11:10;49878.53;;;-146.94;100.00
56737;BME280;42618;51.226;4.910;2022-12-18T02:18:48;49868.56;;;-146.94;100.00
56737;BME280;42618;51.226;4.910;2022-12-18T02:24:17;49914.41;;;-146.94;100.00
56737;BME280;42618;51.226;4.910;2022-12-18T02:27:09;49902.44;;;-146.94;100.00
56737;BME280;42618;51.226;4.910;2022-12-18T02:29:41;49862.56;;;-146.94;100.00
56737;BME280;42618;51.226;4.910;2022-12-18T02:32:15;49886.50;;;-146.94;100.00
56737;BME280;42618;51.226;4.910;2022-12-18T02:34:44;49890.47;;;-146.94;100.00
56737;BME280;42618;51.226;4.910;2022-12-18T02:37:16;49886.50;;;-146.94;100.00
56737;BME280;42618;51.226;4.910;2022-12-18T02:39:48;49890.47;;;-146.94;100.00
56737;BME280;42618;51.226;4.910;2022-12-18T02:42:16;49898.47;;;-146.94;100.00
56737;BME280;42618;51.226;4.910;2022-12-18T02:44:46;49878.53;;;-146.94;100.00
56737;BME280;42618;51.226;4.910;2022-12-18T02:47:18;49892.47;;;-146.94;100.00
56737;BME280;42618;51.226;4.910;2022-12-18T02:57:39;49874.53;;;-146.94;100.00
56737;BME280;42618;51.226;4.910;2022-12-18T03:00:37;49862.56;;;-146.94;100.00
56737;BME280;42618;51.226;4.910;2022-12-18T03:03:39;49894.47;;;-146.94;100.00
56737;BME280;42618;51.226;4.910;2022-12-18T03:06:21;49922.38;;;-146.94;100.00
56737;BME280;42618;51.226;4.910;2022-12-18T03:08:55;49902.44;;;-146.94;100.00
56737;BME280;42618;51.226;4.910;2022-12-18T03:11:26;49878.53;;;-146.94;100.00
56737;BME280;42618;51.226;4.910;2022-12-18T03:14:15;49890.47;;;-146.94;100.00
56737;BME280;42618;51.226;4.910;2022-12-18T03:16:47;49856.59;;;-146.94;100.00
56737;BME280;42618;51.226;4.910;2022-12-18T03:19:18;49874.53;;;-146.94;100.00
56737;BME280;42618;51.226;4.910;2022-12-18T03:21:53;49890.47;;;-146.94;100.00
56737;BME280;42618;51.226;4.910;2022-12-18T03:24:26;49892.47;;;-146.94;100.00
56737;BME280;42618;51.226;4.910;2022-12-18T03:26:59;49888.50;;;-146.94;100.00
56737;BME280;42618;51.226;4.910;2022-12-18T03:29:32;49876.53;;;-146.94;100.00
56737;BME280;42618;51.226;4.910;2022-12-18T03:32:31;49924.38;;;-146.94;100.00
56737;BME280;42618;51.226;4.910;2022-12-18T03:35:02;49898.47;;;-146.94;100.00
56737;BME280;42618;51.226;4.910;2022-12-18T03:37:34;49906.44;;;-146.94;100.00
56737;BME280;42618;51.226;4.910;2022-12-18T03:40:03;49862.56;;;-146.94;100.00
56737;BME280;42618;51.226;4.910;2022-12-18T03:42:57;49926.38;;;-146.94;100.00
56737;BME280;42618;51.226;4.910;2022-12-18T03:45:34;49936.34;;;-146.94;100.00
56737;BME280;42618;51.226;4.910;2022-12-18T03:51:00;49894.47;;;-146.94;100.00
56737;BME280;42618;51.226;4.910;2022-12-18T03:53:58;49886.50;;;-146.94;100.00
56737;BME280;42618;51.226;4.910;2022-12-18T03:56:33;49888.50;;;-146.94;100.00
56737;BME280;42618;51.226;4.910;2022-12-18T03:59:04;49926.38;;;-146.94;100.00
56737;BME280;42618;51.226;4.910;2022-12-18T04:01:35;49898.47;;;-146.94;100.00
56737;BME280;42618;51.226;4.910;2022-12-18T04:04:04;49940.31;;;-146.94;100.00
56737;BME280;42618;51.226;4.910;2022-12-18T04:06:35;49898.47;;;-146.94;100.00
56737;BME280;42618;51.226;4.910;2022-12-18T04:09:04;49918.38;;;-146.94;100.00
56737;BME280;42618;51.226;4.910;2022-12-18T04:11:35;49928.34;;;-146.94;100.00
56737;BME280;42618;51.226;4.910;2022-12-18T04:14:03;49862.56;;;-146.94;100.00
56737;BME280;42618;51.226;4.910;2022-12-18T04:16:33;49862.56;;;-146.94;100.00
56737;BME280;42618;51.226;4.910;2022-12-18T04:19:03;49890.47;;;-146.94;100.00
56737;BME280;42618;51.226;4.910;2022-12-18T04:21:36;49902.44;;;-146.94;100.00
56737;BME280;42618;51.226;4.910;2022-12-18T04:24:03;49912.41;;;-146.94;100.00
56737;BME280;42618;51.226;4.910;2022-12-18T04:26:32;49882.50;;;-146.94;100.00
56737;BME280;42618;51.226;4.910;2022-12-18T04:29:09;49922.38;;;-146.94;100.00
56737;BME280;42618;51.226;4.910;2022-12-18T04:31:36;49880.50;;;-146.94;100.00
56737;BME280;42618;51.226;4.910;2022-12-18T04:34:04;49868.56;;;-146.94;100.00
56737;BME280;42618;51.226;4.910;2022-12-18T04:36:37;49910.41;;;-146.94;100.00
56737;BME280;42618;51.226;4.910;2022-12-18T04:39:03;49862.56;;;-146.94;100.00
56737;BME280;42618;51.226;4.910;2022-12-18T04:41:31;49882.50;;;-146.94;100.00
56737;BME280;42618;51.226;4.910;2022-12-18T04:44:00;49862.56;;;-146.94;100.00
56737;BME280;42618;51.226;4.910;2022-12-18T04:46:26;49878.53;;;-146.94;100.00
56737;BME280;42618;51.226;4.910;2022-12-18T04:48:53;49894.47;;;-146.94;100.00
56737;BME280;42618;51.226;4.910;2022-12-18T04:51:20;49894.47;;;-146.94;100.00
56737;BME280;42618;51.226;4.910;2022-12-18T04:53:52;49946.31;;;-146.94;100.00
56737;BME280;42618;51.226;4.910;2022-12-18T04:56:18;49892.47;;;-146.94;100.00
56737;BME280;42618;51.226;4.910;2022-12-18T04:58:45;49878.53;;;-146.94;100.00
56737;BME280;42618;51.226;4.910;2022-12-18T05:01:14;49886.50;;;-146.94;100.00
56737;BME280;42618;51.226;4.910;2022-12-18T05:03:41;49894.47;;;-146.94;100.00
56737;BME280;42618;51.226;4.910;2022-12-18T05:06:09;49914.41;;;-146.94;100.00
56737;BME280;42618;51.226;4.910;2022-12-18T05:08:36;49910.41;;;-146.94;100.00
56737;BME280;42618;51.226;4.910;2022-12-18T05:11:06;49888.50;;;-146.94;100.00
56737;BME280;42618;51.226;4.910;2022-12-18T05:13:33;49886.50;;;-146.94;100.00
56737;BME280;42618;51.226;4.910;2022-12-18T05:16:02;49886.50;;;-146.94;100.00
56737;BME280;42618;51.226;4.910;2022-12-18T05:18:29;49888.50;;;-146.94;100.00
56737;BME280;42618;51.226;4.910;2022-12-18T05:20:55;49886.50;;;-146.94;100.00
56737;BME280;42618;51.226;4.910;2022-12-18T05:23:23;49912.41;;;-146.94;100.00
56737;BME280;42618;51.226;4.910;2022-12-18T05:25:58;49906.44;;;-146.94;100.00
56737;BME280;42618;51.226;4.910;2022-12-18T05:28:26;49898.47;;;-146.94;100.00
56737;BME280;42618;51.226;4.910;2022-12-18T05:30:56;49880.50;;;-146.94;100.00
56737;BME280;42618;51.226;4.910;2022-12-18T05:33:25;49898.47;;;-146.94;100.00
56737;BME280;42618;51.226;4.910;2022-12-18T05:35:54;49888.50;;;-146.94;100.00
56737;BME280;42618;51.226;4.910;2022-12-18T05:38:23;49890.47;;;-146.94;100.00
56737;BME280;42618;51.226;4.910;2022-12-18T05:40:51;49912.41;;;-146.94;100.00
56737;BME280;42618;51.226;4.910;2022-12-18T05:43:19;49916.41;;;-146.94;100.00
56737;BME280;42618;51.226;4.910;2022-12-18T05:45:47;49866.56;;;-146.94;100.00
56737;BME280;42618;51.226;4.910;2022-12-18T05:48:15;49868.56;;;-146.94;100.00
56737;BME280;42618;51.226;4.910;2022-12-18T05:50:44;49864.56;;;-146.94;100.00
56737;BME280;42618;51.226;4.910;2022-12-18T05:53:15;49898.47;;;-146.94;100.00
56737;BME280;42618;51.226;4.910;2022-12-18T05:55:43;49906.44;;;-146.94;100.00
56737;BME280;42618;51.226;4.910;2022-12-18T05:58:11;49886.50;;;-146.94;100.00
56737;BME280;42618;51.226;4.910;2022-12-18T06:00:41;49890.47;;;-146.94;100.00
56737;BME280;42618;51.226;4.910;2022-12-18T06:03:10;49910.41;;;-146.94;100.00
56737;BME280;42618;51.226;4.910;2022-12-18T06:05:39;49880.50;;;-146.94;100.00
56737;BME280;42618;51.226;4.910;2022-12-18T06:08:07;49884.50;;;-146.94;100.00
56737;BME280;42618;51.226;4.910;2022-12-18T06:10:34;49890.47;;;-146.94;100.00
56737;BME280;42618;51.226;4.910;2022-12-18T06:13:01;49886.50;;;-146.94;100.00
56737;BME280;42618;51.226;4.910;2022-12-18T06:15:27;49930.34;;;-146.94;100.00
56737;BME280;42618;51.226;4.910;2022-12-18T06:17:54;49878.53;;;-146.94;100.00
56737;BME280;42618;51.226;4.910;2022-12-18T06:20:21;49920.38;;;-146.94;100.00
56737;BME280;42618;51.226;4.910;2022-12-18T06:22:48;49924.38;;;-146.94;100.00
56737;BME280;42618;51.226;4.910;2022-12-18T06:25:15;49850.59;;;-146.94;100.00
56737;BME280;42618;51.226;4.910;2022-12-18T06:27:42;49886.50;;;-146.94;100.00
56737;BME280;42618;51.226;4.910;2022-12-18T06:30:09;49942.31;;;-146.94;100.00
56737;BME280;42618;51.226;4.910;2022-12-18T06:32:36;49896.47;;;-146.94;100.00
56737;BME280;42618;51.226;4.910;2022-12-18T06:35:03;49884.50;;;-146.94;100.00
56737;BME280;42618;51.226;4.910;2022-12-18T06:37:31;49902.44;;;-146.94;100.00
56737;BME280;42618;51.226;4.910;2022-12-18T06:39:58;49886.50;;;-146.94;100.00
56737;BME280;42618;51.226;4.910;2022-12-18T06:42:25;49890.47;;;-146.94;100.00
56737;BME280;42618;51.226;4.910;2022-12-18T06:44:51;49916.41;;;-146.94;100.00
56737;BME280;42618;51.226;4.910;2022-12-18T06:47:18;49902.44;;;-146.94;100.00
56737;BME280;42618;51.226;4.910;2022-12-18T06:49:45;49886.50;;;-146.94;100.00
56737;BME280;42618;51.226;4.910;2022-12-18T06:52:11;49850.59;;;-146.94;100.00
56737;BME280;42618;51.226;4.910;2022-12-18T06:54:38;49904.44;;;-146.94;100.00
56737;BME280;42618;51.226;4.910;2022-12-18T06:57:05;49866.56;;;-146.94;100.00
56737;BME280;42618;51.226;4.910;2022-12-18T06:59:32;49874.53;;;-146.94;100.00
56737;BME280;42618;51.226;4.910;2022-12-18T07:01:58;49860.56;;;-146.94;100.00
56737;BME280;42618;51.226;4.910;2022-12-18T07:04:29;49872.53;;;-146.94;100.00
56737;BME280;42618;51.226;4.910;2022-12-18T07:06:56;49898.47;;;-146.94;100.00
56737;BME280;42618;51.226;4.910;2022-12-18T07:09:24;49896.47;;;-146.94;100.00
56737;BME280;42618;51.226;4.910;2022-12-18T07:11:52;49878.53;;;-146.94;100.00
56737;BME280;42618;51.226;4.910;2022-12-18T07:14:18;49880.50;;;-146.94;100.00
56737;BME280;42618;51.226;4.910;2022-12-18T07:16:46;49886.50;;;-146.94;100.00
56737;BME280;42618;51.226;4.910;2022-12-18T07:19:13;49902.44;;;-146.94;100.00
56737;BME280;42618;51.226;4.910;2022-12-18T07:21:40;49870.53;;;-146.94;100.00
56737;BME280;42618;51.226;4.910;2022-12-18T07:24:06;49902.44;;;-146.94;100.00
56737;BME280;42618;51.226;4.910;2022-12-18T07:26:33;49908.44;;;-146.94;100.00
56737;BME280;42618;51.226;4.910;2022-12-18T07:29:00;49898.47;;;-146.94;100.00
56737;BME280;42618;51.226;4.910;2022-12-18T07:31:27;49914.41;;;-146.94;100.00
56737;BME280;42618;51.226;4.910;2022-12-18T07:33:54;49866.56;;;-146.94;100.00
56737;BME280;42618;51.226;4.910;2022-12-18T07:36:21;49886.50;;;-146.94;100.00
56737;BME280;42618;51.226;4.910;2022-12-18T07:38:49;49898.47;;;-146.94;100.00
56737;BME280;42618;51.226;4.910;2022-12-18T07:41:15;49886.50;;;-146.94;100.00
56737;BME280;42618;51.226;4.910;2022-12-18T07:43:42;49848.63;;;-146.94;100.00
56737;BME280;42618;51.226;4.910;2022-12-18T07:46:11;49904.44;;;-146.94;100.00
56737;BME280;42618;51.226;4.910;2022-12-18T07:48:41;49872.53;;;-146.94;100.00
56737;BME280;42618;51.226;4.910;2022-12-18T07:51:09;49910.41;;;-146.94;100.00
56737;BME280;42618;51.226;4.910;2022-12-18T07:53:36;49866.56;;;-146.94;100.00
56737;BME280;42618;51.226;4.910;2022-12-18T07:56:05;49922.38;;;-146.94;100.00
56737;BME280;42618;51.226;4.910;2022-12-18T07:58:53;49900.44;;;-146.94;100.00
56737;BME280;42618;51.226;4.910;2022-12-18T08:01:20;49886.50;;;-146.94;100.00
56737;BME280;42618;51.226;4.910;2022-12-18T08:03:47;49886.50;;;-146.94;100.00
56737;BME280;42618;51.226;4.910;2022-12-18T08:06:15;49890.47;;;-146.94;100.00
56737;BME280;42618;51.226;4.910;2022-12-18T08:08:42;49926.38;;;-146.94;100.00
56737;BME280;42618;51.226;4.910;2022-12-18T08:11:08;49894.47;;;-146.94;100.00
56737;BME280;42618;51.226;4.910;2022-12-18T08:13:35;49834.66;;;-146.94;100.00
56737;BME280;42618;51.226;4.910;2022-12-18T08:16:05;49868.56;;;-146.94;100.00
56737;BME280;42618;51.226;4.910;2022-12-18T08:18:33;49906.44;;;-146.94;100.00
56737;BME280;42618;51.226;4.910;2022-12-18T08:21:11;49906.44;;;-146.94;100.00
56737;BME280;42618;51.226;4.910;2022-12-18T08:23:38;49854.59;;;-146.94;100.00
56737;BME280;42618;51.226;4.910;2022-12-18T08:26:10;49888.50;;;-146.94;100.00
56737;BME280;42618;51.226;4.910;2022-12-18T08:28:37;49838.66;;;-146.94;100.00
56737;BME280;42618;51.226;4.910;2022-12-18T08:31:04;49894.47;;;-146.94;100.00
56737;BME280;42618;51.226;4.910;2022-12-18T08:33:32;49866.56;;;-146.94;100.00
56737;BME280;42618;51.226;4.910;2022-12-18T08:35:59;49870.53;;;-146.94;100.00
56737;BME280;42618;51.226;4.910;2022-12-18T08:38:26;49926.38;;;-146.94;100.00
56737;BME280;42618;51.226;4.910;2022-12-18T08:41:04;49894.47;;;-146.94;100.00
56737;BME280;42618;51.226;4.910;2022-12-18T08:43:31;49850.59;;;-146.94;100.00
56737;BME280;42618;51.226;4.910;2022-12-18T08:46:18;49906.44;;;-146.94;100.00
56737;BME280;42618;51.226;4.910;2022-12-18T08:48:45;49864.56;;;-146.94;100.00
56737;BME280;42618;51.226;4.910;2022-12-18T08:51:12;49866.56;;;-146.94;100.00
56737;BME280;42618;51.226;4.910;2022-12-18T08:53:39;49882.50;;;-146.94;100.00
56737;BME280;42618;51.226;4.910;2022-12-18T08:56:07;49878.53;;;-146.94;100.00
56737;BME280;42618;51.226;4.910;2022-12-18T08:58:34;49898.47;;;-146.94;100.00
56737;BME280;42618;51.226;4.910;2022-12-18T09:01:02;49894.47;;;-146.94;100.00
56737;BME280;42618;51.226;4.910;2022-12-18T09:03:31;49892.47;;;-146.94;100.00
56737;BME280;42618;51.226;4.910;2022-12-18T09:05:57;49924.38;;;-146.94;100.00
56737;BME280;42618;51.226;4.910;2022-12-18T09:08:25;49846.63;;;-146.94;100.00
56737;BME280;42618;51.226;4.910;2022-12-18T09:10:51;49884.50;;;-146.94;100.00
56737;BME280;42618;51.226;4.910;2022-12-18T09:13:18;49854.59;;;-146.94;100.00
56737;BME280;42618;51.226;4.910;2022-12-18T09:15:53;49858.59;;;-146.94;100.00
56737;BME280;42618;51.226;4.910;2022-12-18T09:18:22;49894.47;;;-146.94;100.00
56737;BME280;42618;51.226;4.910;2022-12-18T09:20:49;49888.50;;;-146.94;100.00
56737;BME280;42618;51.226;4.910;2022-12-18T09:23:20;49868.56;;;-146.94;100.00
56737;BME280;42618;51.226;4.910;2022-12-18T09:25:47;49850.59;;;-146.94;100.00
56737;BME280;42618;51.226;4.910;2022-12-18T09:28:17;49868.56;;;-146.94;100.00
56737;BME280;42618;51.226;4.910;2022-12-18T09:30:46;49860.56;;;-146.94;100.00
56737;BME280;42618;51.226;4.910;2022-12-18T09:33:14;49860.56;;;-146.94;100.00
56737;BME280;42618;51.226;4.910;2022-12-18T09:35:42;49870.53;;;-146.94;100.00
56737;BME280;42618;51.226;4.910;2022-12-18T09:38:16;49874.53;;;-146.94;100.00
56737;BME280;42618;51.226;4.910;2022-12-18T09:40:45;49850.59;;;-146.94;100.00
56737;BME280;42618;51.226;4.910;2022-12-18T09:43:20;49866.56;;;-146.94;100.00
56737;BME280;42618;51.226;4.910;2022-12-18T09:45:52;49850.59;;;-146.94;100.00
56737;BME280;42618;51.226;4.910;2022-12-18T09:48:30;49842.63;;;-146.94;100.00
56737;BME280;42618;51.226;4.910;2022-12-18T09:51:03;49872.53;;;-146.94;100.00
56737;BME280;42618;51.226;4.910;2022-12-18T09:53:33;49850.59;;;-146.94;100.00
56737;BME280;42618;51.226;4.910;2022-12-18T09:56:03;49898.47;;;-146.94;100.00
56737;BME280;42618;51.226;4.910;2022-12-18T09:58:43;49836.66;;;-146.94;100.00
56737;BME280;42618;51.226;4.910;2022-12-18T10:01:14;49872.53;;;-146.94;100.00
56737;BME280;42618;51.226;4.910;2022-12-18T10:03:44;49864.56;;;-146.94;100.00
56737;BME280;42618;51.226;4.910;2022-12-18T10:06:15;49858.59;;;-146.94;100.00
56737;BME280;42618;51.226;4.910;2022-12-18T10:09:05;49818.72;;;-146.94;100.00
56737;BME280;42618;51.226;4.910;2022-12-18T10:14:29;49912.41;;;-146.94;100.00
56737;BME280;42618;51.226;4.910;2022-12-18T10:17:18;49866.56;;;-146.94;100.00
56737;BME280;42618;51.226;4.910;2022-12-18T10:19:59;49862.56;;;-146.94;100.00
56737;BME280;42618;51.226;4.910;2022-12-18T10:22:32;49842.63;;;-146.94;100.00
56737;BME280;42618;51.226;4.910;2022-12-18T10:25:17;49852.59;;;-146.94;100.00
56737;BME280;42618;51.226;4.910;2022-12-18T10:27:46;49828.69;;;-146.94;100.00
56737;BME280;42618;51.226;4.910;2022-12-18T10:30:15;49844.63;;;-146.94;100.00
56737;BME280;42618;51.226;4.910;2022-12-18T10:32:42;49838.66;;;-146.94;100.00
56737;BME280;42618;51.226;4.910;2022-12-18T10:35:29;49832.66;;;-146.94;100.00
56737;BME280;42618;51.226;4.910;2022-12-18T10:40:57;49882.50;;;-146.94;100.00
56737;BME280;42618;51.226;4.910;2022-12-18T10:43:30;49856.59;;;-146.94;100.00
56737;BME280;42618;51.226;4.910;2022-12-18T10:46:04;49860.56;;;-146.94;100.00
56737;BME280;42618;51.226;4.910;2022-12-18T10:51:33;49826.69;;;-146.94;100.00
56737;BME280;42618;51.226;4.910;2022-12-18T10:54:05;49854.59;;;-146.94;100.00
56737;BME280;42618;51.226;4.910;2022-12-18T10:56:35;49818.72;;;-146.94;100.00
56737;BME280;42618;51.226;4.910;2022-12-18T10:59:07;49854.59;;;-146.94;100.00
56737;BME280;42618;51.226;4.910;2022-12-18T11:01:53;49862.56;;;-146.94;100.00
56737;BME280;42618;51.226;4.910;2022-12-18T11:04:25;49854.59;;;-146.94;100.00
56737;BME280;42618;51.226;4.910;2022-12-18T11:07:12;49864.56;;;-146.94;100.00
56737;BME280;42618;51.226;4.910;2022-12-18T11:09:40;49834.66;;;-146.94;100.00
56737;BME280;42618;51.226;4.910;2022-12-18T11:12:19;49810.75;;;-146.94;100.00
56737;BME280;42618;51.226;4.910;2022-12-18T11:14:51;49844.63;;;-146.94;100.00
56737;BME280;42618;51.226;4.910;2022-12-18T11:17:19;49816.72;;;-146.94;100.00
56737;BME280;42618;51.226;4.910;2022-12-18T11:19:53;49818.72;;;-146.94;100.00
56737;BME280;42618;51.226;4.910;2022-12-18T11:22:29;49864.56;;;-146.94;100.00
56737;BME280;42618;51.226;4.910;2022-12-18T11:25:06;49846.63;;;-146.94;100.00
56737;BME280;42618;51.226;4.910;2022-12-18T11:28:25;49814.72;;;-146.94;100.00
56737;BME280;42618;51.226;4.910;2022-12-18T11:31:28;49862.56;;;-146.94;100.00
56737;BME280;42618;51.226;4.910;2022-12-18T11:34:01;49842.63;;;-146.94;100.00
56737;BME280;42618;51.226;4.910;2022-12-18T11:36:49;49822.69;;;-146.94;100.00
56737;BME280;42618;51.226;4.910;2022-12-18T11:41:57;49806.75;;;-146.94;100.00
56737;BME280;42618;51.226;4.910;2022-12-18T11:44:49;49850.59;;;-146.94;100.00
56737;BME280;42618;51.226;4.910;2022-12-18T11:47:37;49868.56;;;-146.94;100.00
56737;BME280;42618;51.226;4.910;2022-12-18T11:50:13;49860.56;;;-146.94;100.00
56737;BME280;42618;51.226;4.910;2022-12-18T11:52:42;49846.63;;;-146.94;100.00
56737;BME280;42618;51.226;4.910;2022-12-18T11:58:07;49834.66;;;-146.94;100.00
56737;BME280;42618;51.226;4.910;2022-12-18T12:00:47;49872.53;;;-146.94;100.00
56737;BME280;42618;51.226;4.910;2022-12-18T12:03:27;49820.69;;;-146.94;100.00
56737;BME280;42618;51.226;4.910;2022-12-18T12:06:22;49806.75;;;-146.94;100.00
56737;BME280;42618;51.226;4.910;2022-12-18T12:17:37;49820.69;;;-146.94;100.00
56737;BME280;42618;51.226;4.910;2022-12-18T12:20:21;49820.69;;;-146.94;100.00
56737;BME280;42618;51.226;4.910;2022-12-18T12:23:00;49824.69;;;-146.94;100.00
56737;BME280;42618;51.226;4.910;2022-12-18T12:25:51;49806.75;;;-146.94;100.00
56737;BME280;42618;51.226;4.910;2022-12-18T12:39:34;49792.78;;;-146.94;100.00
56737;BME280;42618;51.226;4.910;2022-12-18T12:42:10;49810.75;;;-146.94;100.00
56737;BME280;42618;51.226;4.910;2022-12-18T12:44:58;49802.75;;;-146.94;100.00
56737;BME280;42618;51.226;4.910;2022-12-18T12:47:35;49824.69;;;-146.94;100.00
56737;BME280;42618;51.226;4.910;2022-12-18T12:50:11;49802.75;;;-146.94;100.00
56737;BME280;42618;51.226;4.910;2022-12-18T12:52:57;49794.78;;;-146.94;100.00
56737;BME280;42618;51.226;4.910;2022-12-18T12:55:26;49802.75;;;-146.94;100.00
56737;BME280;42618;51.226;4.910;2022-12-18T12:57:59;49834.66;;;-146.94;100.00
56737;BME280;42618;51.226;4.910;2022-12-18T13:00:36;49806.75;;;-146.94;100.00
56737;BME280;42618;51.226;4.910;2022-12-18T13:05:53;49822.69;;;-146.94;100.00
56737;BME280;42618;51.226;4.910;2022-12-18T13:08:32;49814.72;;;-146.94;100.00
56737;BME280;42618;51.226;4.910;2022-12-18T13:11:02;49798.78;;;-146.94;100.00
56737;BME280;42618;51.226;4.910;2022-12-18T13:13:55;49834.66;;;-146.94;100.00
56737;BME280;42618;51.226;4.910;2022-12-18T13:16:24;49818.72;;;-146.94;100.00
56737;BME280;42618;51.226;4.910;2022-12-18T13:18:55;49858.59;;;-146.94;100.00
56737;BME280;42618;51.226;4.910;2022-12-18T13:21:28;49860.56;;;-146.94;100.00
56737;BME280;42618;51.226;4.910;2022-12-18T13:23:56;49780.84;;;-146.94;100.00
56737;BME280;42618;51.226;4.910;2022-12-18T13:26:40;49814.72;;;-146.94;100.00
56737;BME280;42618;51.226;4.910;2022-12-18T13:29:07;49806.75;;;-146.94;100.00
56737;BME280;42618;51.226;4.910;2022-12-18T13:34:20;49836.66;;;-146.94;100.00
56737;BME280;42618;51.226;4.910;2022-12-18T13:36:55;49798.78;;;-146.94;100.00
56737;BME280;42618;51.226;4.910;2022-12-18T13:39:25;49798.78;;;-146.94;100.00
56737;BME280;42618;51.226;4.910;2022-12-18T13:44:41;49822.69;;;-146.94;100.00
56737;BME280;42618;51.226;4.910;2022-12-18T13:47:33;49780.84;;;-146.94;100.00
56737;BME280;42618;51.226;4.910;2022-12-18T13:50:10;49798.78;;;-146.94;100.00
56737;BME280;42618;51.226;4.910;2022-12-18T13:52:38;49794.78;;;-146.94;100.00
56737;BME280;42618;51.226;4.910;2022-12-18T13:55:14;49802.75;;;-146.94;100.00
56737;BME280;42618;51.226;4.910;2022-12-18T13:57:42;49794.78;;;-146.94;100.00
56737;BME280;42618;51.226;4.910;2022-12-18T14:02:45;49802.75;;;-146.94;100.00